• Join FlightAware (Why Join?)
  • Login
  • US Flag 
05:35AM EDT


 

Airport Tracker/Info


-or-


 

Live Flight TrackerFlight Track Log ✈ N502QS ✈ 29-Jun-2013 ✈ KSJC - KLAX

Flight Track Log - Related Links

Times and Time Zones

All times are in EDT time to prevent confusion due to time zone crossing. See the N502QS flight status page for this flight to view local times or setup timezone preferences in your user account.

Time Position Orientation Groundspeed Altitude Reporting Facility
EDT Latitude Longitude Course Direction KTS MPH feet Rate Location/Type
02:45PM 37.4000 -121.9667 15° North 159 183 3,700  Level Northern Cal TRACON
02:46PM 37.4500 -121.9500 15° North 251 289 5,000 600 Climbing Northern Cal TRACON
02:47PM 37.4167 -121.8667 117° Southeast 280 322 5,000 960 Level Northern Cal TRACON
02:48PM 37.3500 -121.8000 142° Southeast 278 320 7,000 2,100 Climbing Northern Cal TRACON
02:49PM 37.2881 -121.7311 138° Southeast 281 323 9,700 2,760 Climbing Oakland Center
02:50PM 37.2219 -121.6589 139° Southeast 303 349 13,300 2,700 Climbing Oakland Center
02:51PM 37.1447 -121.5747 139° Southeast 353 406 15,300 2,160 Climbing Oakland Center
02:52PM 37.0556 -121.4750 138° Southeast 394 453 17,800 2,400 Climbing Oakland Center
02:53PM 36.9686 -121.3781 138° Southeast 414 476 20,300 2,400 Climbing Oakland Center
02:54PM 36.8756 -121.2789 140° Southeast 433 498 22,800 2,520 Climbing Oakland Center
02:55PM 36.7819 -121.1792 140° Southeast 440 506 25,500 2,580 Climbing Oakland Center
02:56PM 36.6847 -121.0781 140° Southeast 448 516 28,200 1,680 Climbing Oakland Center
02:57PM 36.5628 -120.9461 139° Southeast 471 542 29,000 360 Climbing Oakland Center
02:58PM 36.4581 -120.8344 139° Southeast 488 562 29,000  Level Oakland Center
02:59PM 36.3539 -120.7231 139° Southeast 493 567 29,000  Level Oakland Center
03:00PM 36.2492 -120.6111 139° Southeast 496 571 29,000  Level Oakland Center
03:01PM 36.1456 -120.5006 139° Southeast 494 568 29,000  Level Oakland Center
03:03PM 36.0403 -120.3872 139° Southeast 499 574 29,000  Level Oakland Center
03:04PM 35.9347 -120.2772 140° Southeast 497 572 29,000  Level Oakland Center
03:05PM 35.8283 -120.1669 140° Southeast 496 571 29,000  Level Oakland Center
03:06PM 35.7233 -120.0569 140° Southeast 494 568 29,000  Level Oakland Center
03:07PM 35.6167 -119.9508 141° Southeast 491 565 29,000  Level Oakland Center
03:08PM 35.5033 -119.8536 145° Southeast 492 566 29,000  Level Oakland Center
03:09PM 35.3683 -119.7383 145° Southeast 489 563 29,000  Level Oakland Center
03:10PM 35.2581 -119.6428 145° Southeast 485 558 29,000  Level Oakland Center
03:11PM 35.1475 -119.5494 145° Southeast 483 556 29,000 -840 Level Oakland Center
03:12PM 35.0431 -119.4606 145° Southeast 460 529 27,300 -1,740 Descending Oakland Center
03:13PM 34.9444 -119.3769 145° Southeast 435 501 25,500 -1,740 Descending Oakland Center
03:14PM 34.8497 -119.2956 145° Southeast 422 486 23,800 -1,680 Descending Oakland Center
03:15PM 34.7550 -119.2153 145° Southeast 416 479 22,100 -1,620 Descending Oakland Center
03:16PM 34.6639 -119.1381 145° Southeast 407 468 20,500 -1,740 Descending Oakland Center
03:17PM 34.5286 -119.0272 146° Southeast 384 442 18,000 -1,680 Descending Los Angeles Center
03:18PM 34.4425 -118.9544 145° Southeast 377 434 16,500 -1,500 Descending Los Angeles Center
03:19PM 34.3583 -118.8844 146° Southeast 366 421 15,000 -1,380 Descending Los Angeles Center
03:20PM 34.2703 -118.8511 163° South 322 371 13,700 -1,320 Descending Los Angeles Center
03:21PM 34.1933 -118.8217 162° South 293 337 12,300 -1,440 Descending Los Angeles Center
03:22PM 34.1167 -118.7933 163° South 288 331 10,800 -1,020 Descending Los Angeles Center
03:24PM 34.0383 -118.7328 147° Southeast 306 352 10,000 -720 Descending Los Angeles Center
03:25PM 34.0256 -118.6228 98° East 265 305 9,200 -1,200 Descending Los Angeles Center
03:26PM 34.0172 -118.5297 96° East 260 299 7,600 -1,140 Descending Los Angeles Center
03:27PM 34.0108 -118.4497 95° East 254 292 6,900 -1,140 Descending Los Angeles Center
03:28PM 34.0197 -118.3667 83° East 252 290 5,300 -1,440 Descending Los Angeles Center
03:29PM 34.0278 -118.2914 83° East 240 276 4,000 -660 Descending Los Angeles Center
03:30PM 34.0342 -118.2253 83° East 217 250 4,000  Level Los Angeles Center
03:31PM 34.0222 -118.1656 104° East 209 241 4,000 -360 Level Los Angeles Center
03:32PM 33.9744 -118.2089 217° Southwest 199 229 3,300 -840 Descending Los Angeles Center
03:33PM 33.9678 -118.2644 262° West 176 203 2,300 -840 Descending Los Angeles Center
03:34PM 33.9603 -118.3197 261° West 172 198 1,600 -840 Descending Los Angeles Center
03:35PM 33.9561 -118.3736 265° West 167 192 700 -780 Descending Los Angeles Center
03:36PM 33.9517 -118.4114 262° West 134 154 100 -600 Descending Los Angeles Center
03:38PM 33.9425 -118.4081 228° Southwest  Level Estimated
03:45PM 33.9425 -118.4081 228° Southwest  Level Estimated